Carthage, Kentucky
Current Conditions -  °F | °C
As of 9:53 AM on Saturday 01 Nov 2014 (Local Time) from KLUK Reporting Station
Overcast Overcast  
Wind Chill: 27°   Ceiling: 1900
Heat Index: 36°   Visibility: 10mi
Dew Point: 29°   Wind: 14mph
Humidity: 76%   Direction: 350°N
Pressure: 30.25"   Gusts: 24mph
Location:  38.8948°N, 84.2968°W
Report Text: KLUK 011353Z 35012G21KT 10SM OVC019 02/M02 A3025 RMK AO2 SNE20 SLP245 P0000 T00221017
Loading
Personal Weather Stations






























Interactive Weather Map
Tropical Storm Tracking
New forecast layout! Learn more

10-Day Weather Forecast

Advertisements
Track Severe Weather on mobile